Time;durP1;ratioP1;P1;durP2;ratioP2;P2;SDS_P1;SDS_P2;PMS_P1;PMS_P2;Temp;Humidity;BMP_temperature;BMP_pressure;BME280_temperature;BME280_humidity;BME280_pressure;Samples;Min_cycle;Max_cycle;Signal;HPM_P1;HPM_P2
2020/06/25 00:01:54;;;;;;;7.6;3.2;;;;;;;16.42;72.67871;941.4545;;;;
2020/06/25 00:04:20;;;;;;;9.2;3;;;;;;;16.17;73.22656;941.4422;;;;
2020/06/25 00:06:45;;;;;;;5.7;3.4;;;;;;;16.24;72.54395;941.552;;;;
2020/06/25 00:09:20;;;;;;;5.7;3;;;;;;;16.15;72.20605;941.4608;;;;
2020/06/25 00:11:36;;;;;;;4.2;2.5;;;;;;;16.15;71.56836;941.4528;;;;
2020/06/25 00:14:01;;;;;;;3.5;2.4;;;;;;;16.3;71.47754;941.3483;;;;
2020/06/25 00:16:27;;;;;;;5.8;2.7;;;;;;;16.35;72.08789;941.4403;;;;
2020/06/25 00:18:52;;;;;;;4;2.7;;;;;;;16.39;71.30859;941.4423;;;;
2020/06/25 00:21:17;;;;;;;7;3;;;;;;;16.51;71.40723;941.3976;;;;
2020/06/25 00:23:43;;;;;;;7.9;2.8;;;;;;;16.51;70.51855;941.3067;;;;
2020/06/25 00:26:08;;;;;;;5.2;2.9;;;;;;;16.55;70.84668;941.2847;;;;
2020/06/25 00:28:33;;;;;;;9.9;3.2;;;;;;;16.6;70.50879;941.2247;;;;
2020/06/25 00:31:01;;;;;;;8.2;3.1;;;;;;;16.68;70.54492;941.2575;;;;
2020/06/25 00:33:26;;;;;;;5.4;3;;;;;;;16.53;70.69336;941.3354;;;;
2020/06/25 00:35:51;;;;;;;5.5;3.1;;;;;;;16.52;71.15527;941.2696;;;;
2020/06/25 00:38:17;;;;;;;5;2.9;;;;;;;16.5;70.33008;941.3108;;;;
2020/06/25 00:40:42;;;;;;;6.5;2.7;;;;;;;16.44;70.51758;941.2719;;;;
2020/06/25 00:43:09;;;;;;;4.4;2.6;;;;;;;16.53;71.12207;941.3098;;;;
2020/06/25 00:45:34;;;;;;;4.7;2.6;;;;;;;16.56;70.17676;941.2902;;;;
2020/06/25 00:48:01;;;;;;;4;2.8;;;;;;;16.53;70.66895;941.3733;;;;
2020/06/25 00:50:26;;;;;;;4.5;2.9;;;;;;;16.48;70.61523;941.2644;;;;
2020/06/25 00:52:53;;;;;;;6.8;3;;;;;;;16.28;71.34668;941.2095;;;;
2020/06/25 00:55:18;;;;;;;7.5;3;;;;;;;16.21;71.61426;941.2266;;;;
2020/06/25 00:57:44;;;;;;;8.1;2.8;;;;;;;16.07;71.8125;941.2733;;;;
2020/06/25 01:00:09;;;;;;;5.8;3;;;;;;;16.16;72.86621;941.39;;;;
2020/06/25 01:02:39;;;;;;;7.8;2.8;;;;;;;16.25;71.62012;941.2466;;;;
2020/06/25 01:05:04;;;;;;;9.2;2.8;;;;;;;15.76;73.14551;941.2064;;;;
2020/06/25 01:07:29;;;;;;;6.7;3.2;;;;;;;15.64;73.95801;941.2473;;;;
2020/06/25 01:09:54;;;;;;;6;3.2;;;;;;;15.87;74.20508;941.3024;;;;
2020/06/25 01:12:22;;;;;;;5.5;3.1;;;;;;;16.01;74.15918;941.3538;;;;
2020/06/25 01:14:47;;;;;;;8.5;3.2;;;;;;;16.08;73.59473;941.3005;;;;
2020/06/25 01:17:13;;;;;;;5.7;2.5;;;;;;;16.2;71.99512;941.2427;;;;
2020/06/25 01:19:38;;;;;;;6;2.8;;;;;;;16.15;71.76563;941.2326;;;;
2020/06/25 01:22:05;;;;;;;12.3;3.2;;;;;;;16.06;72.35254;941.2172;;;;
2020/06/25 01:24:30;;;;;;;4.8;2.6;;;;;;;16.11;72.17676;941.2048;;;;
2020/06/25 01:26:55;;;;;;;3.8;2.8;;;;;;;16.07;72.15918;941.1351;;;;
2020/06/25 01:29:20;;;;;;;5.3;2.8;;;;;;;16.01;72.25098;941.0967;;;;
2020/06/25 01:31:45;;;;;;;5.9;3.1;;;;;;;16.11;73.11328;941.1172;;;;
2020/06/25 01:34:11;;;;;;;5.3;3;;;;;;;16.19;72.97461;941.1214;;;;
2020/06/25 01:36:36;;;;;;;5.5;2.8;;;;;;;16.2;71.9834;941.0506;;;;
2020/06/25 01:39:03;;;;;;;4.3;2.8;;;;;;;16.23;72.2207;940.9631;;;;
2020/06/25 01:41:28;;;;;;;4.4;2.9;;;;;;;16.28;71.54395;940.97;;;;
2020/06/25 01:43:53;;;;;;;6.3;2.7;;;;;;;16.35;71.68262;940.9188;;;;
2020/06/25 01:46:22;;;;;;;4.1;3;;;;;;;16.43;71.81152;940.9352;;;;
2020/06/25 01:48:47;;;;;;;6.3;2.7;;;;;;;16.35;71.07129;940.8809;;;;
2020/06/25 01:51:12;;;;;;;6.2;3.2;;;;;;;16.38;72.3252;940.8702;;;;
2020/06/25 01:53:37;;;;;;;6.5;3.1;;;;;;;16.31;71.65234;940.8789;;;;
2020/06/25 01:56:02;;;;;;;4.4;2.8;;;;;;;16.17;71.91895;940.9006;;;;
2020/06/25 01:58:28;;;;;;;6.2;2.8;;;;;;;15.96;72.625;940.8344;;;;
2020/06/25 02:00:55;;;;;;;4.3;2.8;;;;;;;15.74;73.4209;940.8428;;;;
2020/06/25 02:03:20;;;;;;;7.4;2.9;;;;;;;15.67;73.64063;940.796;;;;
2020/06/25 02:05:45;;;;;;;5.2;2.9;;;;;;;15.58;73.80859;940.7533;;;;
2020/06/25 02:08:11;;;;;;;11.2;3.5;;;;;;;15.62;73.79395;940.6959;;;;
2020/06/25 02:10:40;;;;;;;6.5;3;;;;;;;15.6;74.59863;940.5985;;;;
2020/06/25 02:13:05;;;;;;;6.2;2.9;;;;;;;15.6;73.91699;940.6411;;;;
2020/06/25 02:15:36;;;;;;;8.3;3.2;;;;;;;15.73;74.18066;940.6117;;;;
2020/06/25 02:18:06;;;;;;;5.3;3;;;;;;;15.71;74.6748;940.6792;;;;
2020/06/25 02:20:38;;;;;;;3.7;3;;;;;;;15.63;74.8457;940.6541;;;;
2020/06/25 02:23:07;;;;;;;7;3.4;;;;;;;15.55;75.0166;940.6475;;;;
2020/06/25 02:25:32;;;;;;;8.9;3.9;;;;;;;15.61;74.40234;940.6282;;;;
2020/06/25 02:27:59;;;;;;;5.5;3.2;;;;;;;15.61;74.04688;940.5422;;;;
2020/06/25 02:30:28;;;;;;;7.9;3.5;;;;;;;15.62;74.03711;940.5289;;;;
2020/06/25 02:32:57;;;;;;;5.8;3.3;;;;;;;15.7;74.34961;940.5051;;;;
2020/06/25 02:35:22;;;;;;;6.8;3.1;;;;;;;15.75;73.89648;940.532;;;;
2020/06/25 02:37:47;;;;;;;7.6;3.1;;;;;;;15.73;73.2334;940.5563;;;;
2020/06/25 02:40:13;;;;;;;4.5;2.9;;;;;;;15.63;73.73633;940.5585;;;;
2020/06/25 02:42:39;;;;;;;5.7;2.9;;;;;;;15.52;74.09961;940.5233;;;;
2020/06/25 02:45:04;;;;;;;5.9;3.1;;;;;;;15.49;74.03711;940.5732;;;;
2020/06/25 02:47:31;;;;;;;5.7;3.1;;;;;;;15.51;74.06348;940.6085;;;;
2020/06/25 02:49:56;;;;;;;6.3;3;;;;;;;15.51;74.68652;940.6614;;;;
2020/06/25 02:52:24;;;;;;;6.3;3.2;;;;;;;15.47;74.18262;940.5991;;;;
2020/06/25 02:54:49;;;;;;;5.4;3.1;;;;;;;15.43;74.0957;940.5527;;;;
2020/06/25 02:57:18;;;;;;;7.6;3.4;;;;;;;15.36;74.41797;940.6547;;;;
2020/06/25 02:59:43;;;;;;;6.4;3.5;;;;;;;15.43;74.75488;940.5936;;;;
2020/06/25 03:02:08;;;;;;;4.8;2.9;;;;;;;15.4;74.35645;940.6946;;;;
2020/06/25 03:04:37;;;;;;;6.8;3.3;;;;;;;15.29;74.91406;940.6326;;;;
2020/06/25 03:07:02;;;;;;;7.2;3.3;;;;;;;15.3;74.62695;940.7151;;;;
2020/06/25 03:09:27;;;;;;;8;3.7;;;;;;;15.1;75.58496;940.6725;;;;
2020/06/25 03:11:52;;;;;;;11.1;3.5;;;;;;;14.96;76.02441;940.6373;;;;
2020/06/25 03:14:18;;;;;;;8.4;3.5;;;;;;;15.01;75.97363;940.65;;;;
2020/06/25 03:16:43;;;;;;;8.4;3.4;;;;;;;14.99;76.11035;940.6902;;;;
2020/06/25 03:19:09;;;;;;;5.3;3.5;;;;;;;14.88;76.65625;940.5815;;;;
2020/06/25 03:21:34;;;;;;;8.4;3.6;;;;;;;14.82;77.04688;940.5192;;;;
2020/06/25 03:24:01;;;;;;;5.1;3.6;;;;;;;14.62;77.2793;940.6092;;;;
2020/06/25 03:26:26;;;;;;;6.9;3.6;;;;;;;14.47;78.25391;940.5965;;;;
2020/06/25 03:28:53;;;;;;;8.8;3.7;;;;;;;14.45;78.40039;940.5837;;;;
2020/06/25 03:31:18;;;;;;;9.1;3.8;;;;;;;14.47;78.28906;940.5452;;;;
2020/06/25 03:33:45;;;;;;;8.6;3.8;;;;;;;14.44;78.28418;940.5284;;;;
2020/06/25 03:36:10;;;;;;;13.4;4.1;;;;;;;14.56;78.27051;940.5546;;;;
2020/06/25 03:38:36;;;;;;;6;3.6;;;;;;;14.73;77.62109;940.5449;;;;
2020/06/25 03:41:01;;;;;;;7.2;3.7;;;;;;;14.86;77.57422;940.5631;;;;
2020/06/25 03:43:27;;;;;;;6.3;3.4;;;;;;;14.99;76.17969;940.5619;;;;
2020/06/25 03:45:52;;;;;;;7.4;3.2;;;;;;;14.84;76.39453;940.5385;;;;
2020/06/25 03:48:20;;;;;;;3.8;2.9;;;;;;;14.45;77.74414;940.51;;;;
2020/06/25 03:50:45;;;;;;;4.8;3.3;;;;;;;14.35;78.50977;940.5367;;;;
2020/06/25 03:53:10;;;;;;;6.7;3.2;;;;;;;14.56;78.29297;940.5081;;;;
2020/06/25 03:55:35;;;;;;;6.4;3.6;;;;;;;14.71;77.99805;940.4639;;;;
2020/06/25 03:58:01;;;;;;;9.3;3.4;;;;;;;14.91;77.36426;940.5125;;;;
2020/06/25 04:02:29;;;;;;;8.4;3.5;;;;;;;15.2;75.88086;940.5348;;;;
2020/06/25 04:04:56;;;;;;;7.4;3;;;;;;;15.34;75.58301;940.5536;;;;
2020/06/25 04:07:21;;;;;;;11.8;3.6;;;;;;;15.5;75.13574;940.586;;;;
2020/06/25 04:09:47;;;;;;;4.7;2.7;;;;;;;15.64;74.55957;940.5416;;;;
2020/06/25 04:12:12;;;;;;;7.2;3.5;;;;;;;15.68;73.72266;940.5936;;;;
2020/06/25 04:14:39;;;;;;;6.7;3;;;;;;;15.62;73.79297;940.6244;;;;
2020/06/25 04:17:04;;;;;;;6.4;3.2;;;;;;;15.73;74.15723;940.6157;;;;
2020/06/25 04:19:30;;;;;;;7.2;3.1;;;;;;;15.76;74.20898;940.5617;;;;
2020/06/25 04:21:55;;;;;;;7;3.4;;;;;;;15.65;75.09277;940.6097;;;;
2020/06/25 04:24:22;;;;;;;4.6;2.9;;;;;;;15.66;74.28516;940.5511;;;;
2020/06/25 04:26:48;;;;;;;5.2;3;;;;;;;15.8;74.22949;940.5719;;;;
2020/06/25 04:29:14;;;;;;;4.9;3.1;;;;;;;15.95;73.45605;940.5751;;;;
2020/06/25 04:31:39;;;;;;;6.4;3.3;;;;;;;16.06;72.81543;940.5287;;;;
2020/06/25 04:34:05;;;;;;;6.4;3.2;;;;;;;16.05;72.57227;940.5392;;;;
2020/06/25 04:36:30;;;;;;;9.2;3.8;;;;;;;16.1;73.01758;940.4987;;;;
2020/06/25 04:38:56;;;;;;;6.4;3.4;;;;;;;16.12;73.7627;940.6005;;;;
2020/06/25 04:41:21;;;;;;;5.7;3.3;;;;;;;16.15;73.58203;940.5681;;;;
2020/06/25 04:43:51;;;;;;;8.5;3.6;;;;;;;16.07;74.48145;940.6025;;;;
2020/06/25 04:46:17;;;;;;;8.3;3.7;;;;;;;15.94;75.0957;940.5334;;;;
2020/06/25 04:48:42;;;;;;;6.3;3.6;;;;;;;15.89;75.04102;940.5073;;;;
2020/06/25 04:51:10;;;;;;;7.6;3.9;;;;;;;15.85;76.0166;940.538;;;;
2020/06/25 04:53:35;;;;;;;7.7;3.6;;;;;;;15.85;76.29395;940.4691;;;;
2020/06/25 04:56:04;;;;;;;7.3;3.9;;;;;;;15.74;76.95703;940.5393;;;;
2020/06/25 04:58:29;;;;;;;7.4;3.7;;;;;;;15.66;76.67578;940.5599;;;;
2020/06/25 05:00:55;;;;;;;7.6;4;;;;;;;15.5;76.90234;940.5355;;;;
2020/06/25 05:03:20;;;;;;;13.4;4.2;;;;;;;15.42;78.30859;940.568;;;;
2020/06/25 05:05:47;;;;;;;16.4;3.8;;;;;;;16;77.22168;940.5916;;;;
2020/06/25 05:08:12;;;;;;;12.2;3.5;;;;;;;16.93;73.70117;940.64;;;;
2020/06/25 05:10:39;;;;;;;11.9;3.1;;;;;;;17.99;69.22266;940.5706;;;;
2020/06/25 05:13:04;;;;;;;11.9;3.4;;;;;;;19.26;65.83398;940.5705;;;;
2020/06/25 05:15:33;;;;;;;7.8;2.8;;;;;;;20.27;60.61426;940.5765;;;;
2020/06/25 05:17:58;;;;;;;9.1;2.7;;;;;;;21.17;57.25195;940.5391;;;;
2020/06/25 05:20:25;;;;;;;8.9;2.9;;;;;;;20.61;57.49512;940.6114;;;;
2020/06/25 05:22:50;;;;;;;10.7;3.2;;;;;;;19.87;59.27637;940.603;;;;
2020/06/25 05:25:16;;;;;;;6.9;3.2;;;;;;;19.25;60.35742;940.5674;;;;
2020/06/25 05:27:42;;;;;;;6.5;2.9;;;;;;;18.67;63.58398;940.6219;;;;
2020/06/25 05:30:08;;;;;;;7;3;;;;;;;18.18;65.70703;940.5219;;;;
2020/06/25 05:32:33;;;;;;;6.1;3.1;;;;;;;17.92;66.23828;940.5812;;;;
2020/06/25 05:34:59;;;;;;;10.8;3.8;;;;;;;17.69;67.41113;940.5602;;;;
2020/06/25 05:37:24;;;;;;;8.4;3.8;;;;;;;17.15;69.58887;940.5967;;;;
2020/06/25 05:39:49;;;;;;;7.2;3.2;;;;;;;16.94;70.38867;940.627;;;;
2020/06/25 05:42:15;;;;;;;4;3.1;;;;;;;17.33;69.87207;940.639;;;;
2020/06/25 05:44:40;;;;;;;8.5;3.6;;;;;;;17.54;67.31836;940.5705;;;;
2020/06/25 05:47:07;;;;;;;12.1;3.7;;;;;;;17.94;66.19434;940.5947;;;;
2020/06/25 05:49:32;;;;;;;10.1;3.2;;;;;;;18.41;64.59082;940.5781;;;;
2020/06/25 05:51:57;;;;;;;11.4;3.5;;;;;;;18.82;62.58105;940.5477;;;;
2020/06/25 05:54:23;;;;;;;13.6;3.7;;;;;;;19.11;61.66602;940.5449;;;;
2020/06/25 05:56:49;;;;;;;9.5;3.5;;;;;;;19.81;59.10449;940.4723;;;;
2020/06/25 05:59:15;;;;;;;9.3;3.1;;;;;;;19.59;59.32227;940.4073;;;;
2020/06/25 06:01:46;;;;;;;5.5;2.7;;;;;;;18.91;61.34668;940.3895;;;;
2020/06/25 06:04:12;;;;;;;7;2.7;;;;;;;19.95;61.28223;940.2697;;;;
2020/06/25 06:06:37;;;;;;;10.3;2.6;;;;;;;20.76;55.66699;940.2825;;;;
2020/06/25 06:09:03;;;;;;;6.4;2.7;;;;;;;22.3;52.53027;940.2511;;;;
2020/06/25 06:11:28;;;;;;;4.6;2.1;;;;;;;23.14;48.97559;940.2296;;;;
2020/06/25 06:13:55;;;;;;;4.3;2.1;;;;;;;22.69;49.62988;940.2751;;;;
2020/06/25 06:16:20;;;;;;;6.1;2.1;;;;;;;22.76;49.93164;940.2865;;;;
2020/06/25 06:18:47;;;;;;;6.7;2.5;;;;;;;22.72;51.62988;940.3333;;;;
2020/06/25 06:21:12;;;;;;;6.9;2.4;;;;;;;22.4;52.56543;940.3234;;;;
2020/06/25 06:23:39;;;;;;;6.8;2.3;;;;;;;21.8;54.37012;940.3256;;;;
2020/06/25 06:26:04;;;;;;;6.9;2.3;;;;;;;21.73;53.59863;940.2721;;;;
2020/06/25 06:28:30;;;;;;;5.5;2.4;;;;;;;21.51;54.79004;940.2849;;;;
2020/06/25 06:30:55;;;;;;;5.9;2.2;;;;;;;22.28;55.15527;940.2436;;;;
2020/06/25 06:33:21;;;;;;;5.5;2.1;;;;;;;22.31;52.15625;940.3191;;;;
2020/06/25 06:35:46;;;;;;;5.1;2;;;;;;;23.42;48.57129;940.2595;;;;
2020/06/25 06:38:12;;;;;;;5.7;2;;;;;;;25.13;45.88965;940.1286;;;;
2020/06/25 06:40:38;;;;;;;5.4;1.9;;;;;;;25.14;47.08203;940.2031;;;;
2020/06/25 06:43:04;;;;;;;4;1.9;;;;;;;24.86;47.43164;940.2381;;;;
2020/06/25 06:45:30;;;;;;;5.9;1.9;;;;;;;25.14;45.1709;940.2437;;;;
2020/06/25 06:47:55;;;;;;;7.8;2;;;;;;;24.97;46.60547;940.2668;;;;
2020/06/25 06:50:20;;;;;;;5.5;1.9;;;;;;;24.55;48.23438;940.2556;;;;
2020/06/25 06:52:47;;;;;;;8.3;2.3;;;;;;;24.17;48.02832;940.2432;;;;
2020/06/25 06:55:13;;;;;;;7.6;2.5;;;;;;;23.64;49.28906;940.2628;;;;
2020/06/25 06:57:39;;;;;;;6.4;2.3;;;;;;;22.65;54.93066;940.1615;;;;
2020/06/25 07:00:09;;;;;;;9.5;2.2;;;;;;;22.2;55.12207;940.0739;;;;
2020/06/25 07:02:34;;;;;;;8.9;2.4;;;;;;;22.14;54.36328;940.0947;;;;
2020/06/25 07:05:01;;;;;;;9.2;2.4;;;;;;;21.76;57.11719;940.0783;;;;
2020/06/25 07:07:26;;;;;;;11.9;2.7;;;;;;;22.28;53.93457;940.0637;;;;
2020/06/25 07:09:54;;;;;;;14.3;2.6;;;;;;;22.92;53.03809;939.9748;;;;
2020/06/25 07:12:19;;;;;;;7.8;2.4;;;;;;;22.73;55.07031;940.0115;;;;
2020/06/25 07:14:47;;;;;;;5.5;2.5;;;;;;;22.97;55.80469;939.9493;;;;
2020/06/25 07:17:12;;;;;;;6;2.7;;;;;;;23.26;51.5625;940.0126;;;;
2020/06/25 07:19:38;;;;;;;24.5;3.2;;;;;;;23.32;52.60449;940.0355;;;;
2020/06/25 07:22:02;;;;;;;9.9;2.5;;;;;;;23.41;51.27344;940.0307;;;;
2020/06/25 07:24:29;;;;;;;7.8;2.4;;;;;;;23.47;50.15332;940.0065;;;;
2020/06/25 07:26:54;;;;;;;7;2.4;;;;;;;23.68;49.6582;939.9368;;;;
2020/06/25 07:29:21;;;;;;;7.8;2.1;;;;;;;23.92;47.63672;939.883;;;;
2020/06/25 07:31:46;;;;;;;6.8;2.1;;;;;;;24.1;49.75195;939.7946;;;;
2020/06/25 07:34:13;;;;;;;9;2.3;;;;;;;24.27;47.49707;939.7416;;;;
2020/06/25 07:36:38;;;;;;;8.6;2;;;;;;;24.02;49.95508;939.7422;;;;
2020/06/25 07:39:05;;;;;;;7.7;2;;;;;;;25.43;47.70313;939.7952;;;;
2020/06/25 07:41:30;;;;;;;5.1;2;;;;;;;26.61;44.14648;939.8184;;;;
2020/06/25 07:43:56;;;;;;;3.5;1.7;;;;;;;26.11;43.18652;939.909;;;;
2020/06/25 07:46:21;;;;;;;10.1;2.2;;;;;;;25.33;45.80469;939.9619;;;;
2020/06/25 07:48:47;;;;;;;5.2;2.2;;;;;;;24.88;46.20508;939.8586;;;;
2020/06/25 07:51:12;;;;;;;4.8;2;;;;;;;24.13;48.33105;939.7885;;;;
2020/06/25 07:53:39;;;;;;;4.4;2;;;;;;;24.5;47.07324;939.8409;;;;
2020/06/25 07:56:04;;;;;;;3.9;1.8;;;;;;;24.65;47.65625;939.861;;;;
2020/06/25 07:58:30;;;;;;;4.8;1.8;;;;;;;25.26;45.38379;939.8785;;;;
2020/06/25 08:00:55;;;;;;;5.2;2.2;;;;;;;25.35;45.22754;939.8369;;;;
2020/06/25 08:03:22;;;;;;;6.1;1.8;;;;;;;25.19;47.14746;939.8292;;;;
2020/06/25 08:05:47;;;;;;;6.5;1.9;;;;;;;25.65;46.58105;939.7512;;;;
2020/06/25 08:08:14;;;;;;;5;1.9;;;;;;;26.5;43.34277;939.6809;;;;
2020/06/25 08:10:39;;;;;;;5.6;1.8;;;;;;;26.98;42.66699;939.6412;;;;
2020/06/25 08:13:05;;;;;;;5;2;;;;;;;28.02;39.9375;939.7026;;;;
2020/06/25 08:15:30;;;;;;;5.1;1.6;;;;;;;29.27;39.06055;939.6539;;;;
2020/06/25 08:17:57;;;;;;;6.6;1.7;;;;;;;29.5;36.35059;939.6049;;;;
2020/06/25 08:20:23;;;;;;;7.7;1.8;;;;;;;29.68;35.9248;939.5449;;;;
2020/06/25 08:22:50;;;;;;;3.3;1.4;;;;;;;29.68;37.04492;939.6269;;;;
2020/06/25 08:25:15;;;;;;;4.9;1.8;;;;;;;29.71;36.35547;939.5064;;;;
2020/06/25 08:27:45;;;;;;;4.2;1.7;;;;;;;28.76;38.11133;939.455;;;;
2020/06/25 08:30:17;;;;;;;3.9;1.4;;;;;;;28.49;38.56445;939.5024;;;;
2020/06/25 08:32:46;;;;;;;4.4;1.7;;;;;;;28.09;39.2666;939.4025;;;;
2020/06/25 08:35:11;;;;;;;5.2;1.8;;;;;;;27.79;40.27441;939.4506;;;;
2020/06/25 08:37:37;;;;;;;4.1;1.7;;;;;;;27.07;41.11035;939.3845;;;;
2020/06/25 08:40:02;;;;;;;2.9;1.6;;;;;;;26.61;42.91504;939.3649;;;;
2020/06/25 08:42:27;;;;;;;4.5;1.6;;;;;;;26.75;41.95801;939.3741;;;;
2020/06/25 08:44:53;;;;;;;6.2;1.4;;;;;;;27.68;40.46582;939.3658;;;;
2020/06/25 08:47:18;;;;;;;6.4;1.8;;;;;;;28.67;37.78223;939.3215;;;;
2020/06/25 08:49:46;;;;;;;3.5;1.5;;;;;;;29.36;37.72168;939.2629;;;;
2020/06/25 08:52:11;;;;;;;5.2;2;;;;;;;29.36;38.28125;939.2784;;;;
2020/06/25 08:54:37;;;;;;;4.1;1.4;;;;;;;29.06;35.66016;939.2752;;;;
2020/06/25 08:57:02;;;;;;;3.5;1.5;;;;;;;28.32;38.52637;939.3267;;;;
2020/06/25 08:59:29;;;;;;;4.4;1.5;;;;;;;28.73;38.9541;939.3064;;;;
2020/06/25 09:01:54;;;;;;;4.5;1.4;;;;;;;29.33;38.12402;939.3348;;;;
2020/06/25 09:04:20;;;;;;;5.5;1.6;;;;;;;30.28;36.20996;939.2883;;;;
2020/06/25 09:06:45;;;;;;;5.7;1.5;;;;;;;30.82;35.62012;939.3146;;;;
2020/06/25 09:09:12;;;;;;;6.4;1.7;;;;;;;30.59;36.21094;939.3008;;;;
2020/06/25 09:11:37;;;;;;;3.9;1.6;;;;;;;29.9;34.99902;939.4038;;;;
2020/06/25 09:14:02;;;;;;;6.8;1.6;;;;;;;29.6;35.90527;939.3448;;;;
2020/06/25 09:16:29;;;;;;;6.3;1.6;;;;;;;28.97;38.43945;939.4127;;;;
2020/06/25 09:18:54;;;;;;;6.8;1.6;;;;;;;28.3;38.75098;939.4564;;;;
2020/06/25 09:21:20;;;;;;;6.3;1.6;;;;;;;27.59;41.79883;939.3721;;;;
2020/06/25 09:23:45;;;;;;;3.5;1.5;;;;;;;27.16;43.39453;939.4087;;;;
2020/06/25 09:26:11;;;;;;;6.6;1.7;;;;;;;27.43;41.84277;939.4076;;;;
2020/06/25 09:28:36;;;;;;;5.2;1.6;;;;;;;27.03;42.06543;939.394;;;;
2020/06/25 09:31:04;;;;;;;5.5;1.7;;;;;;;26.53;42.22168;939.2903;;;;
2020/06/25 09:33:29;;;;;;;5.9;1.7;;;;;;;26.29;42.38672;939.2908;;;;
2020/06/25 09:35:55;;;;;;;3.6;1.7;;;;;;;25.92;42.34082;939.3206;;;;
2020/06/25 09:38:20;;;;;;;12;1.9;;;;;;;25.69;43.97363;939.2644;;;;
2020/06/25 09:40:47;;;;;;;4.8;1.7;;;;;;;25.42;45.57715;939.3248;;;;
2020/06/25 09:43:12;;;;;;;6;1.7;;;;;;;25.11;44.83691;939.444;;;;
2020/06/25 09:45:41;;;;;;;5.3;1.7;;;;;;;25.15;45.43164;939.376;;;;
2020/06/25 09:48:06;;;;;;;5.3;1.7;;;;;;;25.09;46.13477;939.4277;;;;
2020/06/25 09:50:33;;;;;;;5;1.6;;;;;;;24.93;45.50293;939.4611;;;;
2020/06/25 09:52:58;;;;;;;5;1.8;;;;;;;24.85;45.84961;939.428;;;;
2020/06/25 09:55:26;;;;;;;3.4;1.7;;;;;;;24.72;45.94141;939.4732;;;;
2020/06/25 09:57:51;;;;;;;6.7;1.9;;;;;;;24.34;46.95117;939.4256;;;;
2020/06/25 10:00:17;;;;;;;5.4;1.9;;;;;;;23.95;48.28809;939.4341;;;;
2020/06/25 10:02:42;;;;;;;4.7;1.9;;;;;;;23.87;49.92676;939.452;;;;
2020/06/25 10:05:13;;;;;;;6.3;2.2;;;;;;;24.05;50.9375;939.4938;;;;
2020/06/25 10:07:41;;;;;;;5.1;1.7;;;;;;;24.18;48.83203;939.4615;;;;
2020/06/25 10:10:06;;;;;;;3.9;1.6;;;;;;;24.46;49.80469;939.4377;;;;
2020/06/25 10:12:33;;;;;;;4.1;2.2;;;;;;;24.6;49.26465;939.4272;;;;
2020/06/25 10:14:58;;;;;;;9.1;1.9;;;;;;;24.59;49.00586;939.4576;;;;
2020/06/25 10:17:25;;;;;;;3.5;1.8;;;;;;;24.78;47.32813;939.373;;;;
2020/06/25 10:19:50;;;;;;;5.4;1.6;;;;;;;25.26;47.34375;939.4056;;;;
2020/06/25 10:22:17;;;;;;;4.4;1.6;;;;;;;25.66;46.97266;939.3428;;;;
2020/06/25 10:24:42;;;;;;;3.5;1.6;;;;;;;25.75;45.98828;939.3782;;;;
2020/06/25 10:27:09;;;;;;;7.6;1.8;;;;;;;25.61;44.69824;939.3873;;;;
2020/06/25 10:29:34;;;;;;;5;1.7;;;;;;;25.36;46.26758;939.3141;;;;
2020/06/25 10:31:59;;;;;;;6;1.7;;;;;;;25.31;46.15527;939.3325;;;;
2020/06/25 10:34:26;;;;;;;4.9;1.6;;;;;;;25.3;45.83594;939.2802;;;;
2020/06/25 10:36:51;;;;;;;4.2;1.5;;;;;;;25.57;47.33984;939.2402;;;;
2020/06/25 10:39:18;;;;;;;60.2;20;;;;;;;25.77;47.71582;939.2344;;;;
2020/06/25 10:41:43;;;;;;;44.4;14.8;;;;;;;25.98;48.56641;939.2827;;;;
2020/06/25 10:44:10;;;;;;;24.6;7.3;;;;;;;26.1;48.2959;939.2633;;;;
2020/06/25 10:46:35;;;;;;;16.7;7.3;;;;;;;26.28;48.08984;939.1378;;;;
2020/06/25 10:49:02;;;;;;;6.1;1.7;;;;;;;26.35;46.32324;939.1428;;;;
2020/06/25 10:51:27;;;;;;;5;1.7;;;;;;;26.49;46.39746;939.1273;;;;
2020/06/25 10:53:54;;;;;;;4.4;1.7;;;;;;;26.52;42.44434;939.1058;;;;
2020/06/25 10:56:19;;;;;;;3.6;1.6;;;;;;;26.65;43.0498;939.1376;;;;
2020/06/25 10:58:47;;;;;;;4.5;1.6;;;;;;;26.89;43.86621;939.16;;;;
2020/06/25 11:01:12;;;;;;;4.8;1.9;;;;;;;26.83;44.57129;939.1332;;;;
2020/06/25 11:03:37;;;;;;;7.5;1.6;;;;;;;26.84;44.74902;939.1192;;;;
2020/06/25 11:06:04;;;;;;;9.5;1.9;;;;;;;26.93;43.1123;939.1781;;;;
2020/06/25 11:08:29;;;;;;;5.2;1.6;;;;;;;26.4;43.07227;939.149;;;;
2020/06/25 11:11:00;;;;;;;5.3;1.4;;;;;;;26.62;43.87598;939.0604;;;;
2020/06/25 11:13:28;;;;;;;4.5;2.1;;;;;;;26.79;44.46094;939.0447;;;;
2020/06/25 11:15:53;;;;;;;7;1.7;;;;;;;26.92;44.07031;939.0561;;;;
2020/06/25 11:18:20;;;;;;;3.1;1.5;;;;;;;26.73;42.01465;939.0337;;;;
2020/06/25 11:20:45;;;;;;;2.8;1.4;;;;;;;26.54;39.5332;939.0361;;;;
2020/06/25 11:23:13;;;;;;;6.6;1.3;;;;;;;26.67;41.77246;939.0728;;;;
2020/06/25 11:25:38;;;;;;;2.9;1.3;;;;;;;26.81;42.5791;939.0196;;;;
2020/06/25 11:28:04;;;;;;;3.1;1.4;;;;;;;27.09;40.92285;939.0564;;;;
2020/06/25 11:30:29;;;;;;;7.8;1.6;;;;;;;26.97;41.13672;939.0125;;;;
2020/06/25 11:32:57;;;;;;;3.9;1.4;;;;;;;27;42.80957;939.053;;;;
2020/06/25 11:35:22;;;;;;;5.5;1.6;;;;;;;26.94;41.9043;939.0187;;;;
2020/06/25 11:37:50;;;;;;;3.7;1.4;;;;;;;27.31;42.04492;938.9565;;;;
2020/06/25 11:40:14;;;;;;;3.8;1.3;;;;;;;27.48;40.26953;938.9836;;;;
2020/06/25 11:42:39;;;;;;;4.5;1.3;;;;;;;27.68;40.46582;939.027;;;;
2020/06/25 11:45:06;;;;;;;4.5;1.7;;;;;;;27.68;41.86523;938.9349;;;;
2020/06/25 11:47:31;;;;;;;2.9;1.4;;;;;;;27.45;41.2627;938.9938;;;;
2020/06/25 11:49:56;;;;;;;3.7;1.4;;;;;;;27.05;40.97754;938.9918;;;;
2020/06/25 11:52:21;;;;;;;6.7;1.6;;;;;;;26.87;42.08594;938.942;;;;
2020/06/25 11:54:47;;;;;;;4.3;1.6;;;;;;;26.78;42.18555;938.9895;;;;
2020/06/25 11:57:12;;;;;;;4.5;1.3;;;;;;;26.93;39.87793;938.9376;;;;
2020/06/25 11:59:40;;;;;;;4.2;1.3;;;;;;;27.08;42.50977;938.897;;;;
2020/06/25 12:02:05;;;;;;;4.2;1.3;;;;;;;27.13;40.32129;938.9391;;;;
2020/06/25 12:04:30;;;;;;;4.7;1.2;;;;;;;27.32;38.6543;938.9135;;;;
2020/06/25 12:06:55;;;;;;;3.7;1.4;;;;;;;27.44;41.95117;938.9572;;;;
2020/06/25 12:09:21;;;;;;;5.3;1.7;;;;;;;27.41;40.16895;938.9069;;;;
2020/06/25 12:11:46;;;;;;;5.5;1.6;;;;;;;27.36;40.08008;938.9288;;;;
2020/06/25 12:14:11;;;;;;;5;1.3;;;;;;;27.3;40.24219;938.8795;;;;
2020/06/25 12:16:37;;;;;;;4.8;1.4;;;;;;;27.26;40.91406;938.9155;;;;
2020/06/25 12:19:02;;;;;;;4.8;1.3;;;;;;;27.13;40.36914;938.822;;;;
2020/06/25 12:21:38;;;;;;;2.2;1.2;;;;;;;27.19;40.62305;938.9246;;;;
2020/06/25 12:24:03;;;;;;;3.4;1.5;;;;;;;27.1;40.35449;938.9309;;;;
2020/06/25 12:26:28;;;;;;;2.8;1.3;;;;;;;27;40.7002;938.8823;;;;
2020/06/25 12:28:54;;;;;;;3.2;1.3;;;;;;;26.96;40.25879;938.8539;;;;
2020/06/25 12:31:19;;;;;;;7.4;1.5;;;;;;;27.04;42.12695;938.8697;;;;
2020/06/25 12:33:45;;;;;;;5.3;1.5;;;;;;;26.9;42.49316;938.9376;;;;
2020/06/25 12:36:10;;;;;;;4.5;1.4;;;;;;;26.93;40.14941;938.8839;;;;
2020/06/25 12:38:37;;;;;;;6.4;1.4;;;;;;;26.88;41.44824;938.8931;;;;
2020/06/25 12:41:02;;;;;;;3.4;1.4;;;;;;;26.6;41.36328;938.8775;;;;
2020/06/25 12:43:27;;;;;;;3;1.4;;;;;;;26.35;41.8252;938.8113;;;;
2020/06/25 12:45:55;;;;;;;3.2;1.3;;;;;;;26.15;43.00098;938.8395;;;;
2020/06/25 12:48:22;;;;;;;3.8;1.4;;;;;;;26.08;41.59863;938.882;;;;
2020/06/25 12:50:47;;;;;;;4.2;1.6;;;;;;;25.86;44.32129;938.8699;;;;
2020/06/25 12:53:13;;;;;;;4.3;1.6;;;;;;;25.75;43.47168;938.8272;;;;
2020/06/25 12:55:37;;;;;;;6.4;1.8;;;;;;;25.59;43.34863;938.8459;;;;
2020/06/25 12:58:04;;;;;;;5.1;1.7;;;;;;;25.87;43.69531;938.8723;;;;
2020/06/25 13:00:29;;;;;;;3.7;1.6;;;;;;;25.78;43.99512;938.8159;;;;
2020/06/25 13:02:55;;;;;;;5.1;1.6;;;;;;;25.46;44.56543;938.8499;;;;
2020/06/25 13:05:20;;;;;;;4.3;1.4;;;;;;;25.27;44.38086;938.908;;;;
2020/06/25 13:07:46;;;;;;;4.3;1.6;;;;;;;25.37;45.08691;938.8522;;;;
2020/06/25 13:10:11;;;;;;;4.9;1.6;;;;;;;25.69;46.14746;938.7889;;;;
2020/06/25 13:12:36;;;;;;;5.1;1.5;;;;;;;25.97;42.64063;938.8056;;;;
2020/06/25 13:15:02;;;;;;;4.4;1.7;;;;;;;26.07;43.99902;938.8998;;;;
2020/06/25 13:17:27;;;;;;;4.7;1.5;;;;;;;25.88;43.88672;938.8709;;;;
2020/06/25 13:19:52;;;;;;;6;1.4;;;;;;;25.62;45.33691;938.8878;;;;
2020/06/25 13:22:17;;;;;;;7.4;1.5;;;;;;;25.31;44.96387;938.9573;;;;
2020/06/25 13:24:45;;;;;;;4.4;1.5;;;;;;;25.3;45.0918;938.9054;;;;
2020/06/25 13:27:10;;;;;;;5.2;1.6;;;;;;;25.31;44.5498;938.9755;;;;
2020/06/25 13:29:36;;;;;;;4.8;1.5;;;;;;;25.43;45.22363;938.9235;;;;
2020/06/25 13:32:01;;;;;;;10.7;1.4;;;;;;;25.27;45.60938;938.9667;;;;
2020/06/25 13:34:27;;;;;;;4.8;1.6;;;;;;;25.31;45.50684;939.0046;;;;
2020/06/25 13:36:52;;;;;;;2.3;1.3;;;;;;;25.33;45.14258;938.9589;;;;
2020/06/25 13:39:19;;;;;;;3.4;1.4;;;;;;;25.18;46.10742;938.928;;;;
2020/06/25 13:41:44;;;;;;;6.6;1.6;;;;;;;25.24;45.23926;938.9869;;;;
2020/06/25 13:44:09;;;;;;;5.5;1.5;;;;;;;25.01;46.00684;938.9773;;;;
2020/06/25 13:46:34;;;;;;;4.9;1.5;;;;;;;24.8;46.29199;938.9167;;;;
2020/06/25 13:48:59;;;;;;;5.4;1.5;;;;;;;24.81;46.06934;938.9311;;;;
2020/06/25 13:51:26;;;;;;;3.8;1.5;;;;;;;24.92;46.33984;938.9608;;;;
2020/06/25 13:53:51;;;;;;;3.9;1.4;;;;;;;24.81;46.37598;939.063;;;;
2020/06/25 13:56:16;;;;;;;3.1;1.3;;;;;;;24.78;46.50195;939.0204;;;;
2020/06/25 13:58:42;;;;;;;3.8;1.4;;;;;;;24.71;46.35352;939.0023;;;;
2020/06/25 14:01:09;;;;;;;4.4;1.6;;;;;;;24.76;46.44043;939.041;;;;
2020/06/25 14:03:35;;;;;;;3.8;1.4;;;;;;;24.9;46.64453;939.0714;;;;
2020/06/25 14:06:00;;;;;;;6.7;1.5;;;;;;;25.05;45.56348;938.9969;;;;
2020/06/25 14:08:25;;;;;;;3.2;1.4;;;;;;;25.06;45.58789;938.9899;;;;
2020/06/25 14:10:50;;;;;;;4.7;1.4;;;;;;;25.18;46.53223;938.9755;;;;
2020/06/25 14:13:15;;;;;;;5.9;1.4;;;;;;;25.2;44.94141;939.0209;;;;
2020/06/25 14:15:41;;;;;;;3.8;1.5;;;;;;;25.16;44.94824;938.9534;;;;
2020/06/25 14:18:06;;;;;;;6.6;1.4;;;;;;;24.9;45.47656;938.9892;;;;
2020/06/25 14:20:31;;;;;;;7.7;1.8;;;;;;;24.48;46.91895;938.9648;;;;